createdAt,value
2018-06-22T00:04:32.726Z,31.90
2018-06-22T00:09:36.681Z,32.50
2018-06-22T00:14:40.444Z,32.50
2018-06-22T00:19:44.136Z,32.20
2018-06-22T00:24:47.841Z,32.80
2018-06-22T00:29:51.524Z,33.20
2018-06-22T00:34:55.244Z,33.50
2018-06-22T00:39:59.056Z,33.50
2018-06-22T00:45:02.763Z,33.60
2018-06-22T00:50:06.500Z,34.20
2018-06-22T00:55:10.247Z,34.10
2018-06-22T01:00:13.892Z,34.70
2018-06-22T01:05:17.629Z,34.60
2018-06-22T01:10:21.460Z,35.00
2018-06-22T01:15:25.561Z,35.20
2018-06-22T01:20:29.341Z,35.30
2018-06-22T01:25:33.111Z,34.90
2018-06-22T01:30:37.001Z,35.20
2018-06-22T01:35:40.696Z,34.90
2018-06-22T01:40:44.624Z,35.40
2018-06-22T01:45:48.310Z,35.50
2018-06-22T01:50:51.961Z,35.30
2018-06-22T01:55:55.598Z,35.70
2018-06-22T02:01:00.295Z,35.50
2018-06-22T02:06:04.239Z,35.70
2018-06-22T02:11:08.160Z,36.10
2018-06-22T02:16:11.873Z,36.20
2018-06-22T02:21:15.770Z,36.70
2018-06-22T02:26:19.451Z,36.20
2018-06-22T02:31:23.111Z,36.30
2018-06-22T02:36:26.800Z,36.40
2018-06-22T02:41:30.599Z,36.30
2018-06-22T02:46:34.336Z,36.50
2018-06-22T02:51:38.012Z,36.40
2018-06-22T02:56:41.698Z,36.70
2018-06-22T03:01:45.571Z,37.00
2018-06-22T03:06:49.243Z,37.50
2018-06-22T03:11:52.989Z,37.40
2018-06-22T03:16:56.672Z,37.40
2018-06-22T03:22:00.321Z,37.80
2018-06-22T03:27:04.016Z,37.80
2018-06-22T03:32:07.817Z,37.30
2018-06-22T03:37:12.304Z,38.00
2018-06-22T03:42:17.250Z,37.80
2018-06-22T03:47:20.910Z,38.00
2018-06-22T03:52:24.604Z,37.80
2018-06-22T03:57:28.277Z,38.00
2018-06-22T04:02:34.640Z,38.00
2018-06-22T04:07:38.738Z,37.70
2018-06-22T04:12:42.433Z,38.20
2018-06-22T04:17:50.235Z,38.60
2018-06-22T04:22:54.264Z,39.10
2018-06-22T04:27:58.040Z,39.30
2018-06-22T04:33:03.580Z,38.90
2018-06-22T04:43:11.369Z,40.40
2018-06-22T04:48:15.044Z,41.80
2018-06-22T04:53:18.785Z,41.50
2018-06-22T04:58:22.470Z,40.90
2018-06-22T05:03:26.240Z,41.10
2018-06-22T05:08:29.920Z,41.20
2018-06-22T05:13:33.676Z,40.20
2018-06-22T05:18:37.338Z,39.90
2018-06-22T05:23:40.950Z,41.30
2018-06-22T05:33:48.071Z,40.80
2018-06-22T05:38:51.789Z,41.20
2018-06-22T05:43:55.456Z,41.20
2018-06-22T05:48:59.097Z,41.00
2018-06-22T05:54:02.765Z,40.70
2018-06-22T05:59:06.563Z,41.20
2018-06-22T06:04:10.296Z,41.40
2018-06-22T06:09:20.522Z,41.20
2018-06-22T06:14:24.202Z,41.90
2018-06-22T06:19:28.504Z,41.70
2018-06-22T06:24:32.192Z,40.80
2018-06-22T06:29:37.576Z,40.30
2018-06-22T06:34:41.242Z,39.90
2018-06-22T06:39:45.169Z,40.00
2018-06-22T06:44:48.882Z,41.20
2018-06-22T06:49:52.539Z,42.80
2018-06-22T06:54:57.148Z,41.70
2018-06-22T07:00:01.145Z,41.20
2018-06-22T07:05:05.044Z,40.70
2018-06-22T07:10:09.084Z,41.50
2018-06-22T07:15:12.832Z,40.80
2018-06-22T07:25:19.809Z,40.30
2018-06-22T07:30:23.482Z,40.60
2018-06-22T07:35:27.454Z,40.30
2018-06-22T07:40:31.825Z,38.80
2018-06-22T07:45:36.171Z,38.90
2018-06-22T07:50:40.155Z,39.20
2018-06-22T07:55:43.821Z,38.50
2018-06-22T08:00:47.521Z,38.60
2018-06-22T08:05:51.898Z,39.30
2018-06-22T08:10:55.606Z,40.00
2018-06-22T08:15:59.261Z,40.50
2018-06-22T08:21:04.784Z,38.70
2018-06-22T08:26:08.452Z,39.80
2018-06-22T08:31:12.765Z,39.20
2018-06-22T08:36:17.638Z,40.20
2018-06-22T08:41:21.310Z,40.10
2018-06-22T08:46:24.991Z,41.10
2018-06-22T08:51:28.738Z,38.40
2018-06-22T08:56:32.516Z,38.70
2018-06-22T09:01:37.058Z,40.00
2018-06-22T09:11:52.234Z,39.40
2018-06-22T09:16:55.977Z,38.60
2018-06-22T09:21:59.625Z,37.60
2018-06-22T09:27:03.649Z,38.50
2018-06-22T09:32:08.182Z,35.70
2018-06-22T09:37:13.742Z,33.90
2018-06-22T09:42:19.496Z,33.60
2018-06-22T09:47:23.133Z,32.00
2018-06-22T09:52:26.952Z,31.80
2018-06-22T09:57:31.048Z,33.20
2018-06-22T10:02:34.696Z,33.30
2018-06-22T10:07:38.336Z,32.90
2018-06-22T10:12:42.105Z,31.50
2018-06-22T10:17:46.853Z,32.50
2018-06-22T10:22:51.081Z,30.90
2018-06-22T10:27:57.089Z,30.10
2018-06-22T10:33:01.122Z,30.60
2018-06-22T10:38:04.886Z,30.60
2018-06-22T10:43:08.969Z,30.00
2018-06-22T10:48:14.604Z,30.30
2018-06-22T10:53:20.779Z,29.80
2018-06-22T10:58:24.993Z,32.00
2018-06-22T11:03:29.032Z,29.40
2018-06-22T11:08:32.871Z,29.70
2018-06-22T11:13:37.139Z,29.40
2018-06-22T11:18:41.237Z,30.00
2018-06-22T11:23:45.073Z,30.80
2018-06-22T11:28:48.859Z,28.50
2018-06-22T11:33:52.571Z,29.10
2018-06-22T11:38:56.918Z,30.10
2018-06-22T11:44:01.451Z,28.80
2018-06-22T11:49:05.256Z,29.10
2018-06-22T11:54:09.123Z,29.70
2018-06-22T11:59:13.032Z,29.50
2018-06-22T12:04:17.166Z,29.00
2018-06-22T12:09:21.638Z,28.80
2018-06-22T12:14:25.603Z,28.60
2018-06-22T12:19:29.709Z,28.90
2018-06-22T12:24:33.918Z,28.40
2018-06-22T12:29:37.768Z,28.50
2018-06-22T12:34:41.436Z,27.80
2018-06-22T12:39:45.132Z,29.00
2018-06-22T12:49:52.225Z,29.70
2018-06-22T12:54:56.597Z,28.90
2018-06-22T13:00:00.248Z,28.60
2018-06-22T13:05:05.580Z,28.60
2018-06-22T13:10:09.330Z,28.60
2018-06-22T13:15:15.005Z,29.00
2018-06-22T13:20:18.706Z,28.10
2018-06-22T13:25:25.075Z,28.40
2018-06-22T13:30:28.769Z,28.20
2018-06-22T13:35:32.451Z,28.80
2018-06-22T13:40:37.055Z,28.10
2018-06-22T13:45:41.649Z,28.20
2018-06-22T13:50:45.450Z,26.90
2018-06-22T13:55:51.273Z,26.90
2018-06-22T14:00:55.263Z,26.70
2018-06-22T14:06:04.743Z,26.80
2018-06-22T14:11:08.645Z,27.40
2018-06-22T14:16:14.030Z,27.30
2018-06-22T14:21:17.794Z,27.20
2018-06-22T14:26:21.477Z,27.90
2018-06-22T14:31:25.923Z,28.30
2018-06-22T14:36:32.018Z,28.00
2018-06-22T14:41:38.597Z,27.80
2018-06-22T14:46:44.542Z,28.10
2018-06-22T14:51:55.263Z,29.00
2018-06-22T14:57:06.161Z,29.10
2018-06-22T15:02:16.881Z,27.70
2018-06-22T15:07:28.370Z,28.10
2018-06-22T15:12:34.629Z,28.00
2018-06-22T15:17:44.265Z,27.50
2018-06-22T15:22:50.110Z,26.50
2018-06-22T15:27:53.940Z,26.80
2018-06-22T15:32:58.494Z,26.00
2018-06-22T15:38:09.578Z,26.10
2018-06-22T15:43:20.080Z,25.70
2018-06-22T15:48:31.397Z,26.00
2018-06-22T15:55:45.896Z,25.20
2018-06-22T16:00:49.648Z,26.00
2018-06-22T16:05:53.383Z,27.20
2018-06-22T16:10:57.829Z,27.20
2018-06-22T16:16:07.025Z,27.40
2018-06-22T16:21:16.339Z,27.80
2018-06-22T16:26:26.683Z,28.50
2018-06-22T16:31:31.859Z,29.10
2018-06-22T16:36:35.653Z,29.10
2018-06-22T16:41:39.356Z,28.70
2018-06-22T16:46:43.127Z,29.30
2018-06-22T16:51:47.376Z,29.00
2018-06-22T16:56:51.318Z,28.80
2018-06-22T17:01:54.971Z,29.00
2018-06-22T17:07:04.346Z,28.60
2018-06-22T17:12:15.293Z,28.40
2018-06-22T17:17:25.239Z,28.50
2018-06-22T17:22:29.850Z,28.40
2018-06-22T17:27:33.864Z,27.90
2018-06-22T17:32:37.915Z,28.40
2018-06-22T17:37:41.569Z,28.40
2018-06-22T17:42:45.558Z,28.90
2018-06-22T17:47:49.243Z,28.70
2018-06-22T17:52:52.911Z,29.10
2018-06-22T17:57:56.552Z,29.50
2018-06-22T18:03:05.660Z,29.40
2018-06-22T18:08:14.639Z,29.30
2018-06-22T18:13:18.383Z,29.70
2018-06-22T18:18:22.127Z,29.60
2018-06-22T18:23:25.831Z,29.80
2018-06-22T18:28:29.492Z,29.80
2018-06-22T18:33:33.144Z,30.00
2018-06-22T18:38:37.116Z,29.70
2018-06-22T18:43:46.243Z,29.60
2018-06-22T18:48:49.984Z,29.80
2018-06-22T18:53:58.935Z,30.10
2018-06-22T18:59:08.661Z,30.40
2018-06-22T19:04:12.820Z,30.60
2018-06-22T19:09:17.232Z,30.80
2018-06-22T19:14:21.063Z,30.90
2018-06-22T19:19:24.759Z,30.90
2018-06-22T19:24:28.606Z,30.80
2018-06-22T19:29:32.281Z,31.70
2018-06-22T19:34:41.914Z,31.30
2018-06-22T19:39:45.621Z,31.70
2018-06-22T19:44:56.429Z,31.80
2018-06-22T19:50:05.393Z,32.00
2018-06-22T19:55:09.152Z,32.50
2018-06-22T20:00:12.918Z,32.90
2018-06-22T20:05:16.636Z,33.40
2018-06-22T20:10:20.342Z,33.20
2018-06-22T20:15:24.735Z,33.80
2018-06-22T20:20:29.184Z,34.70
2018-06-22T20:25:38.426Z,35.60
2018-06-22T20:30:42.257Z,36.40
2018-06-22T20:35:51.218Z,36.70
2018-06-22T20:41:00.326Z,37.00
2018-06-22T20:46:04.057Z,37.50
2018-06-22T20:51:07.763Z,37.30
2018-06-22T20:56:11.595Z,37.90
2018-06-22T21:01:15.350Z,38.10
2018-06-22T21:06:19.056Z,38.50
2018-06-22T21:11:22.781Z,38.30
2018-06-22T21:16:26.775Z,38.60
2018-06-22T21:21:36.488Z,38.70
2018-06-22T21:26:42.144Z,38.90
2018-06-22T21:31:51.171Z,38.90
2018-06-22T21:37:00.497Z,39.30
2018-06-22T21:42:04.228Z,39.50
2018-06-22T21:47:07.926Z,39.60
2018-06-22T21:52:11.973Z,40.20
2018-06-22T21:57:15.667Z,40.30
2018-06-22T22:02:19.414Z,40.50
2018-06-22T22:07:23.101Z,40.30
2018-06-22T22:12:26.816Z,40.30
2018-06-22T22:17:30.619Z,40.20
2018-06-22T22:22:34.384Z,40.20
2018-06-22T22:27:38.052Z,41.40
2018-06-22T22:32:41.763Z,41.00
2018-06-22T22:37:45.458Z,41.40
2018-06-22T22:42:49.406Z,41.90
2018-06-22T22:47:53.098Z,42.50
2018-06-22T22:52:56.764Z,42.30
2018-06-22T22:58:00.437Z,42.20
2018-06-22T23:03:04.168Z,42.80
2018-06-22T23:08:08.323Z,42.50
2018-06-22T23:13:12.037Z,42.30
2018-06-22T23:18:15.753Z,43.30
2018-06-22T23:23:28.734Z,44.20
2018-06-22T23:28:32.539Z,44.80
2018-06-22T23:33:36.512Z,44.60
2018-06-22T23:38:40.365Z,43.70
2018-06-22T23:43:44.108Z,43.10
2018-06-22T23:48:48.034Z,43.70
2018-06-22T23:53:51.797Z,44.10
2018-06-22T23:58:55.512Z,44.30
